createdAt,value
2018-07-07T00:01:09.023Z,20.00
2018-07-07T00:03:40.832Z,20.00
2018-07-07T00:06:12.237Z,20.00
2018-07-07T00:08:43.842Z,19.90
2018-07-07T00:11:15.125Z,19.90
2018-07-07T00:13:46.778Z,19.90
2018-07-07T00:16:18.096Z,19.80
2018-07-07T00:18:49.331Z,19.80
2018-07-07T00:21:20.532Z,19.80
2018-07-07T00:23:52.448Z,19.80
2018-07-07T00:26:23.685Z,19.70
2018-07-07T00:28:54.892Z,19.50
2018-07-07T00:31:26.066Z,19.40
2018-07-07T00:33:57.634Z,19.40
2018-07-07T00:36:29.025Z,19.50
2018-07-07T00:39:00.270Z,19.60
2018-07-07T00:41:31.416Z,19.50
2018-07-07T00:44:03.017Z,19.40
2018-07-07T00:46:34.684Z,19.40
2018-07-07T00:51:36.767Z,19.30
2018-07-07T00:54:08.280Z,19.30
2018-07-07T00:56:39.323Z,19.20
2018-07-07T00:59:10.725Z,19.10
2018-07-07T01:01:41.928Z,19.10
2018-07-07T01:04:13.257Z,19.10
2018-07-07T01:06:45.338Z,19.00
2018-07-07T01:09:17.139Z,19.00
2018-07-07T01:11:48.324Z,19.00
2018-07-07T01:14:20.900Z,19.00
2018-07-07T01:16:52.107Z,18.90
2018-07-07T01:19:23.604Z,18.90
2018-07-07T01:21:55.480Z,18.90
2018-07-07T01:24:26.793Z,19.00
2018-07-07T01:26:58.163Z,19.00
2018-07-07T01:29:29.425Z,18.90
2018-07-07T01:32:00.557Z,18.80
2018-07-07T01:34:31.800Z,18.80
2018-07-07T01:37:02.968Z,18.80
2018-07-07T01:39:34.208Z,18.80
2018-07-07T01:44:36.500Z,18.80
2018-07-07T01:47:07.884Z,18.70
2018-07-07T01:49:39.076Z,18.70
2018-07-07T01:52:10.319Z,18.80
2018-07-07T01:54:41.480Z,18.90
2018-07-07T01:57:12.674Z,18.90
2018-07-07T01:59:43.859Z,18.90
2018-07-07T02:02:15.048Z,18.90
2018-07-07T02:04:46.582Z,18.80
2018-07-07T02:07:17.831Z,18.80
2018-07-07T02:09:49.211Z,18.80
2018-07-07T02:12:20.865Z,18.80
2018-07-07T02:14:52.065Z,18.70
2018-07-07T02:19:54.552Z,18.50
2018-07-07T02:22:25.957Z,18.40
2018-07-07T02:24:57.173Z,18.40
2018-07-07T02:27:28.335Z,18.30
2018-07-07T02:30:00.275Z,18.30
2018-07-07T02:32:31.340Z,18.30
2018-07-07T02:35:02.308Z,18.40
2018-07-07T02:37:34.520Z,18.30
2018-07-07T02:40:05.955Z,18.30
2018-07-07T02:42:37.247Z,18.40
2018-07-07T02:45:08.679Z,18.40
2018-07-07T02:47:39.865Z,18.40
2018-07-07T02:50:11.107Z,18.30
2018-07-07T02:52:42.469Z,18.30
2018-07-07T02:55:13.866Z,18.20
2018-07-07T02:57:45.208Z,18.30
2018-07-07T03:00:17.259Z,18.40
2018-07-07T03:05:19.154Z,18.20
2018-07-07T03:07:50.357Z,18.30
2018-07-07T03:10:21.609Z,18.30
2018-07-07T03:12:52.752Z,18.30
2018-07-07T03:15:24.352Z,18.30
2018-07-07T03:17:55.792Z,18.20
2018-07-07T03:20:26.906Z,18.10
2018-07-07T03:22:58.284Z,18.10
2018-07-07T03:25:29.727Z,18.10
2018-07-07T03:28:01.082Z,18.00
2018-07-07T03:30:32.272Z,18.20
2018-07-07T03:33:03.647Z,18.20
2018-07-07T03:35:35.026Z,18.20
2018-07-07T03:38:06.555Z,18.20
2018-07-07T03:40:37.619Z,18.20
2018-07-07T03:43:09.446Z,18.20
2018-07-07T03:45:40.776Z,18.20
2018-07-07T03:48:12.037Z,18.10
2018-07-07T03:50:43.533Z,18.20
2018-07-07T03:53:14.776Z,18.10
2018-07-07T03:55:46.126Z,18.00
2018-07-07T03:58:17.419Z,18.00
2018-07-07T04:00:48.994Z,18.10
2018-07-07T04:03:20.091Z,18.00
2018-07-07T04:05:51.350Z,17.90
2018-07-07T04:08:22.512Z,17.70
2018-07-07T04:10:53.884Z,17.60
2018-07-07T04:13:25.268Z,17.70
2018-07-07T04:15:56.673Z,17.70
2018-07-07T04:18:35.955Z,17.70
2018-07-07T04:21:07.533Z,17.80
2018-07-07T04:23:38.751Z,17.90
2018-07-07T04:26:10.148Z,18.00
2018-07-07T04:28:41.293Z,17.90
2018-07-07T04:31:12.660Z,17.80
2018-07-07T04:33:44.370Z,17.60
2018-07-07T04:36:15.620Z,17.80
2018-07-07T04:38:47.281Z,17.70
2018-07-07T04:41:18.449Z,17.70
2018-07-07T04:43:49.772Z,17.80
2018-07-07T04:46:21.211Z,17.90
2018-07-07T04:48:52.369Z,17.80
2018-07-07T04:51:23.743Z,17.90
2018-07-07T04:53:54.773Z,17.90
2018-07-07T04:56:26.803Z,18.00
2018-07-07T04:58:57.948Z,17.90
2018-07-07T05:01:29.577Z,17.90
2018-07-07T05:04:00.934Z,18.00
2018-07-07T05:06:32.327Z,18.10
2018-07-07T05:09:03.655Z,18.10
2018-07-07T05:11:34.738Z,18.10
2018-07-07T05:14:13.051Z,18.10
2018-07-07T05:19:14.981Z,18.20
2018-07-07T05:21:46.209Z,18.00
2018-07-07T05:24:17.503Z,18.10
2018-07-07T05:26:48.945Z,18.20
2018-07-07T05:29:20.741Z,18.40
2018-07-07T05:31:53.671Z,18.30
2018-07-07T05:34:24.852Z,18.20
2018-07-07T05:36:56.083Z,18.30
2018-07-07T05:39:27.231Z,18.40
2018-07-07T05:41:58.460Z,18.40
2018-07-07T05:44:30.079Z,18.30
2018-07-07T05:47:01.806Z,18.30
2018-07-07T05:49:33.007Z,18.30
2018-07-07T05:52:04.232Z,18.30
2018-07-07T05:54:35.620Z,18.30
2018-07-07T05:57:07.052Z,18.30
2018-07-07T05:59:39.159Z,18.40
2018-07-07T06:02:10.589Z,18.40
2018-07-07T06:04:41.900Z,18.40
2018-07-07T06:07:13.559Z,18.60
2018-07-07T06:09:44.647Z,18.70
2018-07-07T06:12:15.884Z,18.70
2018-07-07T06:14:47.260Z,18.80
2018-07-07T06:17:18.447Z,18.90
2018-07-07T06:19:49.624Z,19.00
2018-07-07T06:22:21.045Z,19.00
2018-07-07T06:24:52.424Z,19.10
2018-07-07T06:27:23.783Z,19.20
2018-07-07T06:29:55.171Z,19.30
2018-07-07T06:32:26.269Z,19.30
2018-07-07T06:34:57.636Z,19.50
2018-07-07T06:37:29.744Z,19.70
2018-07-07T06:40:00.944Z,19.70
2018-07-07T06:42:32.137Z,19.70
2018-07-07T06:45:03.532Z,19.90
2018-07-07T06:47:34.923Z,19.90
2018-07-07T06:50:06.333Z,19.90
2018-07-07T06:52:37.540Z,20.00
2018-07-07T06:55:09.143Z,20.10
2018-07-07T06:57:40.239Z,20.20
2018-07-07T07:00:12.214Z,20.40
2018-07-07T07:02:43.643Z,20.60
2018-07-07T07:05:15.039Z,20.70
2018-07-07T07:07:46.188Z,20.90
2018-07-07T07:10:17.430Z,21.10
2018-07-07T07:12:48.576Z,21.30
2018-07-07T07:15:20.059Z,21.20
2018-07-07T07:17:51.188Z,21.40
2018-07-07T07:20:22.824Z,21.50
2018-07-07T07:22:54.281Z,21.60
2018-07-07T07:25:25.586Z,22.00
2018-07-07T07:27:56.741Z,22.10
2018-07-07T07:30:27.930Z,22.50
2018-07-07T07:32:59.445Z,22.50
2018-07-07T07:35:30.532Z,22.90
2018-07-07T07:38:01.704Z,22.90
2018-07-07T07:40:33.318Z,22.80
2018-07-07T07:43:04.989Z,22.80
2018-07-07T07:45:36.624Z,23.00
2018-07-07T07:48:08.488Z,23.00
2018-07-07T07:50:39.903Z,23.10
2018-07-07T07:53:10.995Z,23.20
2018-07-07T07:55:42.243Z,23.40
2018-07-07T07:58:13.589Z,23.50
2018-07-07T08:00:44.953Z,23.80
2018-07-07T08:03:16.483Z,23.40
2018-07-07T08:05:47.594Z,23.30
2018-07-07T08:08:18.939Z,23.40
2018-07-07T08:10:50.135Z,23.50
2018-07-07T08:13:21.541Z,24.20
2018-07-07T08:15:52.733Z,24.00
2018-07-07T08:18:23.909Z,24.00
2018-07-07T08:20:55.280Z,24.00
2018-07-07T08:23:26.680Z,24.10
2018-07-07T08:25:57.855Z,24.10
2018-07-07T08:28:29.129Z,24.70
2018-07-07T08:31:00.472Z,25.20
2018-07-07T08:33:31.862Z,25.20
2018-07-07T08:36:03.278Z,25.10
2018-07-07T08:38:34.651Z,25.60
2018-07-07T08:41:06.212Z,25.30
2018-07-07T08:43:37.403Z,25.10
2018-07-07T08:46:08.907Z,25.00
2018-07-07T08:48:39.981Z,25.40
2018-07-07T08:51:11.676Z,25.30
2018-07-07T08:53:42.955Z,25.30
2018-07-07T08:56:14.311Z,25.50
2018-07-07T08:58:45.511Z,25.70
2018-07-07T09:01:16.699Z,25.50
2018-07-07T09:03:48.148Z,25.80
2018-07-07T09:06:19.504Z,26.00
2018-07-07T09:08:50.917Z,25.80
2018-07-07T09:11:22.271Z,27.00
2018-07-07T09:13:53.490Z,27.30
2018-07-07T09:16:25.676Z,27.10
2018-07-07T09:18:57.027Z,26.50
2018-07-07T09:21:28.208Z,26.20
2018-07-07T09:23:59.483Z,26.10
2018-07-07T09:26:30.616Z,26.30
2018-07-07T09:29:01.952Z,26.20
2018-07-07T09:31:33.570Z,26.00
2018-07-07T09:34:04.952Z,26.20
2018-07-07T09:36:36.289Z,26.70
2018-07-07T09:39:08.623Z,26.70
2018-07-07T09:41:39.926Z,26.80
2018-07-07T09:44:11.172Z,26.80
2018-07-07T09:46:42.829Z,27.20
2018-07-07T09:49:14.381Z,26.60
2018-07-07T09:51:45.485Z,26.50
2018-07-07T09:54:16.668Z,27.10
2018-07-07T09:56:48.089Z,27.10
2018-07-07T09:59:19.536Z,27.90
2018-07-07T10:01:50.826Z,27.70
2018-07-07T10:04:21.996Z,28.10
2018-07-07T10:06:53.675Z,28.90
2018-07-07T10:09:24.786Z,29.10
2018-07-07T10:11:56.165Z,29.10
2018-07-07T10:14:27.178Z,29.70
2018-07-07T10:16:58.741Z,29.20
2018-07-07T10:19:30.825Z,28.50
2018-07-07T10:22:02.091Z,28.90
2018-07-07T10:24:33.296Z,28.70
2018-07-07T10:27:04.315Z,28.70
2018-07-07T10:29:36.184Z,29.40
2018-07-07T10:32:07.492Z,29.80
2018-07-07T10:34:38.873Z,30.20
2018-07-07T10:37:10.323Z,29.90
2018-07-07T10:39:42.278Z,29.90
2018-07-07T10:42:13.649Z,30.00
2018-07-07T10:44:45.082Z,30.00
2018-07-07T10:47:16.377Z,29.90
2018-07-07T10:49:47.584Z,30.20
2018-07-07T10:52:18.956Z,29.80
2018-07-07T10:54:50.451Z,29.80
2018-07-07T10:57:21.604Z,30.20
2018-07-07T10:59:53.069Z,30.50
2018-07-07T11:02:24.363Z,30.30
2018-07-07T11:04:55.809Z,30.20
2018-07-07T11:07:27.131Z,30.70
2018-07-07T11:09:58.713Z,30.20
2018-07-07T11:12:30.226Z,30.40
2018-07-07T11:15:02.369Z,30.90
2018-07-07T11:17:33.931Z,31.10
2018-07-07T11:20:05.229Z,31.90
2018-07-07T11:22:37.184Z,31.10
2018-07-07T11:25:08.420Z,30.60
2018-07-07T11:27:40.047Z,30.90
2018-07-07T11:30:11.453Z,31.70
2018-07-07T11:32:42.779Z,31.00
2018-07-07T11:35:14.123Z,31.40
2018-07-07T11:37:45.434Z,31.10
2018-07-07T11:40:16.841Z,30.90
2018-07-07T11:42:48.147Z,31.40
2018-07-07T11:45:19.496Z,31.20
2018-07-07T11:47:50.891Z,31.20
2018-07-07T11:50:22.635Z,31.70
2018-07-07T11:52:53.827Z,31.80
2018-07-07T11:55:24.884Z,31.70
2018-07-07T11:57:56.087Z,31.80
2018-07-07T12:00:28.080Z,31.70
2018-07-07T12:02:59.336Z,31.70
2018-07-07T12:05:31.432Z,31.90
2018-07-07T12:08:13.785Z,31.50
2018-07-07T12:10:34.193Z,32.10
2018-07-07T12:13:05.662Z,32.90
2018-07-07T12:15:36.748Z,32.50
2018-07-07T12:18:08.417Z,32.80
2018-07-07T12:20:39.738Z,32.60
2018-07-07T12:23:11.451Z,32.30
2018-07-07T12:25:43.024Z,32.80
2018-07-07T12:28:14.511Z,33.30
2018-07-07T12:30:45.859Z,33.40
2018-07-07T12:33:16.915Z,33.20
2018-07-07T12:35:48.263Z,32.90
2018-07-07T12:38:19.685Z,32.80
2018-07-07T12:40:50.881Z,32.90
2018-07-07T12:43:22.262Z,32.60
2018-07-07T12:45:53.499Z,32.70
2018-07-07T12:48:25.009Z,32.90
2018-07-07T12:50:56.312Z,32.60
2018-07-07T12:53:28.394Z,31.80
2018-07-07T12:56:00.021Z,31.30
2018-07-07T12:58:31.331Z,31.70
2018-07-07T13:01:02.562Z,32.10
2018-07-07T13:03:33.776Z,32.30
2018-07-07T13:06:05.218Z,32.10
2018-07-07T13:11:07.473Z,32.40
2018-07-07T13:13:38.559Z,32.50
2018-07-07T13:16:09.755Z,32.50
2018-07-07T13:18:40.948Z,32.60
2018-07-07T13:21:12.231Z,32.60
2018-07-07T13:23:43.932Z,33.10
2018-07-07T13:26:15.340Z,33.00
2018-07-07T13:31:17.227Z,33.50
2018-07-07T13:33:48.616Z,33.60
2018-07-07T13:36:19.878Z,33.10
2018-07-07T13:38:51.290Z,32.70
2018-07-07T13:41:22.577Z,33.70
2018-07-07T13:43:53.844Z,33.00
2018-07-07T13:46:24.971Z,33.10
2018-07-07T13:48:56.027Z,33.00
2018-07-07T13:51:27.421Z,33.20
2018-07-07T13:53:58.640Z,33.10
2018-07-07T13:56:29.963Z,32.80
2018-07-07T13:59:01.343Z,33.20
2018-07-07T14:01:32.739Z,32.80
2018-07-07T14:04:03.952Z,32.80
2018-07-07T14:06:35.097Z,32.50
2018-07-07T14:09:07.414Z,32.60
2018-07-07T14:11:38.671Z,32.60
2018-07-07T14:14:09.895Z,32.20
2018-07-07T14:16:42.547Z,32.00
2018-07-07T14:19:13.997Z,32.10
2018-07-07T14:21:45.701Z,32.00
2018-07-07T14:24:16.855Z,32.00
2018-07-07T14:26:48.033Z,32.10
2018-07-07T14:29:19.399Z,32.00
2018-07-07T14:31:50.807Z,31.80
2018-07-07T14:34:21.990Z,31.90
2018-07-07T14:36:53.524Z,31.70
2018-07-07T14:39:30.098Z,31.40
2018-07-07T14:42:24.086Z,31.20
2018-07-07T14:44:55.221Z,31.10
2018-07-07T14:47:26.463Z,31.50
2018-07-07T14:49:57.698Z,31.40
2018-07-07T14:52:29.244Z,31.60
2018-07-07T14:55:00.410Z,31.60
2018-07-07T14:57:31.863Z,31.50
2018-07-07T15:00:03.019Z,31.50
2018-07-07T15:02:34.216Z,31.30
2018-07-07T15:05:06.434Z,31.50
2018-07-07T15:07:37.771Z,31.30
2018-07-07T15:10:10.579Z,31.40
2018-07-07T15:12:41.770Z,31.30
2018-07-07T15:17:45.119Z,31.30
2018-07-07T15:20:16.280Z,31.20
2018-07-07T15:22:47.565Z,31.30
2018-07-07T15:27:50.107Z,31.30
2018-07-07T15:30:21.347Z,31.40
2018-07-07T15:32:52.807Z,31.30
2018-07-07T15:35:24.217Z,31.20
2018-07-07T15:37:55.620Z,31.20
2018-07-07T15:40:27.075Z,31.30
2018-07-07T15:42:58.842Z,30.90
2018-07-07T15:45:30.336Z,31.00
2018-07-07T15:48:01.530Z,30.80
2018-07-07T15:50:32.772Z,30.70
2018-07-07T15:53:04.412Z,30.90
2018-07-07T15:55:35.676Z,31.00
2018-07-07T15:58:07.112Z,30.80
2018-07-07T16:00:38.492Z,30.90
2018-07-07T16:03:09.806Z,31.00
2018-07-07T16:05:41.527Z,30.90
2018-07-07T16:08:13.019Z,30.70
2018-07-07T16:10:44.431Z,30.70
2018-07-07T16:13:15.769Z,30.80
2018-07-07T16:15:47.448Z,30.60
2018-07-07T16:20:49.529Z,30.40
2018-07-07T16:23:21.335Z,30.60
2018-07-07T16:25:52.562Z,30.70
2018-07-07T16:28:23.736Z,30.80
2018-07-07T16:30:55.162Z,30.90
2018-07-07T16:33:26.716Z,31.00
2018-07-07T16:35:57.922Z,31.00
2018-07-07T16:38:29.417Z,31.00
2018-07-07T16:41:00.635Z,31.00
2018-07-07T16:43:33.060Z,30.80
2018-07-07T16:46:04.769Z,30.80
2018-07-07T16:48:36.359Z,30.60
2018-07-07T16:51:07.930Z,30.60
2018-07-07T16:53:39.202Z,30.70
2018-07-07T16:56:10.910Z,30.70
2018-07-07T16:58:42.115Z,30.60
2018-07-07T17:01:13.383Z,30.60
2018-07-07T17:03:44.871Z,30.60
2018-07-07T17:06:16.673Z,30.40
2018-07-07T17:08:48.542Z,30.20
2018-07-07T17:11:20.023Z,30.40
2018-07-07T17:13:51.587Z,30.40
2018-07-07T17:16:23.859Z,30.50
2018-07-07T17:18:55.354Z,30.60
2018-07-07T17:21:27.253Z,30.50
2018-07-07T17:23:58.701Z,30.50
2018-07-07T17:26:30.041Z,30.50
2018-07-07T17:29:01.551Z,30.30
2018-07-07T17:31:32.712Z,30.20
2018-07-07T17:34:04.278Z,30.00
2018-07-07T17:36:35.872Z,30.10
2018-07-07T17:39:07.078Z,30.10
2018-07-07T17:41:38.331Z,30.00
2018-07-07T17:44:09.781Z,30.00
2018-07-07T17:49:11.978Z,30.00
2018-07-07T17:51:43.268Z,29.90
2018-07-07T17:54:15.379Z,29.90
2018-07-07T17:56:46.726Z,29.70
2018-07-07T17:59:19.260Z,29.60
2018-07-07T18:01:51.003Z,29.40
2018-07-07T18:04:22.866Z,29.50
2018-07-07T18:09:24.916Z,29.50
2018-07-07T18:11:55.954Z,29.40
2018-07-07T18:14:27.335Z,29.40
2018-07-07T18:16:58.887Z,29.30
2018-07-07T18:19:31.062Z,29.40
2018-07-07T18:22:02.261Z,29.40
2018-07-07T18:24:33.653Z,29.30
2018-07-07T18:27:05.075Z,29.40
2018-07-07T18:29:36.676Z,29.40
2018-07-07T18:32:07.974Z,29.40
2018-07-07T18:34:39.296Z,29.40
2018-07-07T18:37:12.416Z,29.40
2018-07-07T18:39:43.816Z,29.20
2018-07-07T18:42:15.151Z,29.10
2018-07-07T18:44:46.809Z,28.80
2018-07-07T18:47:18.123Z,28.70
2018-07-07T18:49:49.784Z,28.60
2018-07-07T18:52:20.920Z,28.50
2018-07-07T18:54:52.106Z,28.40
2018-07-07T18:57:23.348Z,28.40
2018-07-07T18:59:54.667Z,28.40
2018-07-07T19:02:25.968Z,28.50
2018-07-07T19:04:57.088Z,28.40
2018-07-07T19:07:28.350Z,28.30
2018-07-07T19:12:30.641Z,28.30
2018-07-07T19:15:06.895Z,28.30
2018-07-07T19:17:38.302Z,28.30
2018-07-07T19:20:13.741Z,28.20
2018-07-07T19:22:49.891Z,28.20
2018-07-07T19:25:25.923Z,28.10
2018-07-07T19:27:57.117Z,28.00
2018-07-07T19:30:28.705Z,27.80
2018-07-07T19:33:04.628Z,27.80
2018-07-07T19:35:40.966Z,27.80
2018-07-07T19:38:12.446Z,27.70
2018-07-07T19:40:43.742Z,27.60
2018-07-07T19:43:15.000Z,27.50
2018-07-07T19:45:46.433Z,27.40
2018-07-07T19:48:18.049Z,27.40
2018-07-07T19:50:49.374Z,27.30
2018-07-07T19:53:21.053Z,27.10
2018-07-07T19:55:52.644Z,27.00
2018-07-07T19:58:24.059Z,26.90
2018-07-07T20:00:55.157Z,26.80
2018-07-07T20:03:26.556Z,26.80
2018-07-07T20:05:58.051Z,26.90
2018-07-07T20:08:29.332Z,26.90
2018-07-07T20:11:00.654Z,26.80
2018-07-07T20:13:32.715Z,26.80
2018-07-07T20:16:21.912Z,26.70
2018-07-07T20:19:29.019Z,26.70
2018-07-07T20:22:02.836Z,26.50
2018-07-07T20:24:37.481Z,26.50
2018-07-07T20:27:14.539Z,26.50
2018-07-07T20:29:45.840Z,26.50
2018-07-07T20:32:21.683Z,26.50
2018-07-07T20:34:52.762Z,26.50
2018-07-07T20:37:24.136Z,26.40
2018-07-07T20:39:55.423Z,26.30
2018-07-07T20:42:26.555Z,26.30
2018-07-07T20:44:57.722Z,26.30
2018-07-07T20:47:29.131Z,26.20
2018-07-07T20:50:00.372Z,26.20
2018-07-07T20:52:31.491Z,26.00
2018-07-07T20:55:03.720Z,25.90
2018-07-07T20:57:35.069Z,25.80
2018-07-07T21:00:06.989Z,25.60
2018-07-07T21:02:38.090Z,25.50
2018-07-07T21:05:09.536Z,25.50
2018-07-07T21:07:40.810Z,25.40
2018-07-07T21:10:12.075Z,25.30
2018-07-07T21:12:44.038Z,25.30
2018-07-07T21:15:18.780Z,25.30
2018-07-07T21:17:50.164Z,25.30
2018-07-07T21:20:21.408Z,25.20
2018-07-07T21:22:52.506Z,25.10
2018-07-07T21:25:23.860Z,25.10
2018-07-07T21:27:54.950Z,25.00
2018-07-07T21:30:27.286Z,24.90
2018-07-07T21:32:58.455Z,24.90
2018-07-07T21:35:29.689Z,24.90
2018-07-07T21:38:00.879Z,24.90
2018-07-07T21:40:32.067Z,24.90
2018-07-07T21:43:03.219Z,24.80
2018-07-07T21:45:34.407Z,24.80
2018-07-07T21:48:05.679Z,24.90
2018-07-07T21:53:07.988Z,24.80
2018-07-07T21:55:39.572Z,24.70
2018-07-07T21:58:15.836Z,24.60
2018-07-07T22:01:07.866Z,24.50
2018-07-07T22:03:44.243Z,24.60
2018-07-07T22:06:20.404Z,24.70
2018-07-07T22:08:52.004Z,24.70
2018-07-07T22:11:23.410Z,24.80
2018-07-07T22:13:55.269Z,24.50
2018-07-07T22:16:26.445Z,24.50
2018-07-07T22:18:57.885Z,24.50
2018-07-07T22:22:10.285Z,24.40
2018-07-07T22:24:42.518Z,24.40
2018-07-07T22:27:14.921Z,24.30
2018-07-07T22:29:46.064Z,24.30
2018-07-07T22:32:20.896Z,24.30
2018-07-07T22:34:53.421Z,24.20
2018-07-07T22:37:24.535Z,24.30
2018-07-07T22:39:56.067Z,24.10
2018-07-07T22:42:27.162Z,24.00
2018-07-07T22:44:58.462Z,23.90
2018-07-07T22:47:29.501Z,23.90
2018-07-07T22:50:00.722Z,23.80
2018-07-07T22:52:31.893Z,23.90
2018-07-07T22:55:03.126Z,23.90
2018-07-07T22:57:34.303Z,23.90
2018-07-07T23:00:05.825Z,24.10
2018-07-07T23:02:37.235Z,23.80
2018-07-07T23:05:08.453Z,23.90
2018-07-07T23:07:39.694Z,23.90
2018-07-07T23:10:11.215Z,23.90
2018-07-07T23:12:43.222Z,23.90
2018-07-07T23:15:14.458Z,23.70
2018-07-07T23:17:46.016Z,23.50
2018-07-07T23:20:17.168Z,23.50
2018-07-07T23:22:52.909Z,23.40
2018-07-07T23:25:24.146Z,23.30
2018-07-07T23:27:55.425Z,23.20
2018-07-07T23:30:26.455Z,23.10
2018-07-07T23:32:57.864Z,23.20
2018-07-07T23:35:29.147Z,23.10
2018-07-07T23:38:00.251Z,23.10
2018-07-07T23:40:31.487Z,23.20
2018-07-07T23:43:02.648Z,23.20
2018-07-07T23:45:33.819Z,23.20
2018-07-07T23:48:05.377Z,23.20
2018-07-07T23:50:37.026Z,23.20
2018-07-07T23:53:08.229Z,23.10
2018-07-07T23:55:39.478Z,23.30
2018-07-07T23:58:10.777Z,23.10
